METAR Data
IDs: Format: Raw Decoded Include TAF

Data at: 2242 UTC 02 Aug 2021

EGGD 022220Z AUTO VRB02KT 9999 NCD 13/12 Q1014